This is the latest recevied weather packets stored in our database for station/object KI5NXU. If no packets are shown the sender has not sent any weather packets the latest 10 day(s).
| Time | Temp. | Humidity | Pressure | Rain* | Wind** | Luminosity | Snow |
|---|---|---|---|---|---|---|---|
| 1777512372 | 16.11° C | 79% | 1013.3 hPa | 0 mm | - | 0 W/m² | - |
| 1777512068 | 16.11° C | 80% | 1013.8 hPa | 0 mm | - | 0 W/m² | - |
| 1777511767 | 16.11° C | 80% | 1013.5 hPa | 0 mm | - | 0 W/m² | - |
| 1777511463 | 16.11° C | 79% | 1013.5 hPa | 0 mm | - | 0 W/m² | - |
| 1777511160 | 16.11° C | 79% | 1013.7 hPa | 0 mm | - | 0 W/m² | - |
| 1777510553 | 16.11° C | 80% | 1013 hPa | 0 mm | - | 3 W/m² | - |
| 1777510249 | 16.11° C | 79% | 1012.8 hPa | 0 mm | - | 3 W/m² | - |
| 1777509945 | 16.11° C | 79% | 1012.6 hPa | 0 mm | - | 7 W/m² | - |
| 1777509641 | 16.11° C | 79% | 1013.2 hPa | 0 mm | - | 9 W/m² | - |
| 1777509338 | 16.11° C | 79% | 1013.3 hPa | 0 mm | - | 9 W/m² | - |
| 1777508732 | 16.11° C | 78% | 1013.4 hPa | 0 mm | - | 19 W/m² | - |
| 1777508126 | 16.11° C | 78% | 1013.6 hPa | 0 mm | - | 14 W/m² | - |
| 1777507823 | 16.11° C | 77% | 1013.5 hPa | 0 mm | - | 24 W/m² | - |
| 1777507520 | 16.11° C | 77% | 1013.5 hPa | 0 mm | - | 34 W/m² | - |
| 1777507217 | 16.11° C | 77% | 1013.7 hPa | 0 mm | - | 31 W/m² | - |
| 1777505699 | 16.11° C | 76% | 1013.5 hPa | 0 mm | - | 31 W/m² | - |
| 1777502968 | 16.11° C | 79% | 1013.5 hPa | 0 mm | - | 16 W/m² | - |
| 1777502666 | 16.11° C | 77% | 1013.2 hPa | 0 mm | - | 22 W/m² | - |
| 1777502362 | 16.11° C | 77% | 1012.8 hPa | 0 mm | - | 52 W/m² | - |
| 1777501454 | 16.67° C | 77% | 1013.6 hPa | 0 mm | - | 29 W/m² | - |
| 1777501150 | 16.67° C | 77% | 1012.5 hPa | 0 mm | - | 104 W/m² | - |
| 1777500849 | 16.67° C | 77% | 1013 hPa | 0 mm | - | 74 W/m² | - |
| 1777500546 | 16.67° C | 77% | 1012.9 hPa | 0 mm | - | 58 W/m² | - |
| 1777500242 | 16.67° C | 77% | 1012.9 hPa | 0 mm | - | 92 W/m² | - |
| 1777499939 | 16.67° C | 76% | 1013.3 hPa | 0 mm | - | 63 W/m² | - |
* Rain latest hour (hover to see other rain measurements)
** Current wind speed in m/s (hover to see current wind gust speed)